Time;durP1;ratioP1;P1;durP2;ratioP2;P2;SDS_P1;SDS_P2;PMS_P1;PMS_P2;Temp;Humidity;BMP_temperature;BMP_pressure;BME280_temperature;BME280_humidity;BME280_pressure;Samples;Min_cycle;Max_cycle;Signal;HPM_P1;HPM_P2
2022/04/06 00:00:31;;;;;;;3.47;2.20;;;;;;;-2.03;78.05;98510.25;4997364;28;20061;-66
2022/04/06 00:02:58;;;;;;;5.95;2.83;;;;;;;-2.04;77.15;98507.78;4998825;28;20385;-67
2022/04/06 00:05:24;;;;;;;3.53;2.47;;;;;;;-2.07;76.17;98508.06;4997730;28;20479;-69
2022/04/06 00:07:49;;;;;;;3.20;2.37;;;;;;;-2.22;75.72;98516.31;4997142;28;20085;-67
2022/04/06 00:10:17;;;;;;;3.25;1.80;;;;;;;-2.23;76.03;98530.31;4978384;28;20050;-64
2022/04/06 00:12:43;;;;;;;5.67;3.07;;;;;;;-2.23;76.74;98519.06;4995729;28;20054;-64
2022/04/06 00:15:10;;;;;;;4.07;2.37;;;;;;;-2.27;76.71;98523.72;4995814;28;20331;-67
2022/04/06 00:17:36;;;;;;;4.30;2.80;;;;;;;-2.22;77.51;98531.13;4978524;28;20037;-64
2022/04/06 00:20:03;;;;;;;6.03;2.88;;;;;;;-2.15;76.88;98544.44;4995563;28;20038;-66
2022/04/06 00:22:29;;;;;;;3.97;3.00;;;;;;;-2.21;77.10;98543.19;4996200;28;20061;-67
2022/04/06 00:24:54;;;;;;;3.07;2.50;;;;;;;-2.20;77.01;98544.84;4996860;28;20042;-66
2022/04/06 00:27:20;;;;;;;4.70;2.27;;;;;;;-2.19;76.43;98544.72;4996073;28;20041;-65
2022/04/06 00:29:45;;;;;;;8.30;3.33;;;;;;;-2.11;75.76;98556.25;4995421;28;20405;-66
2022/04/06 00:32:11;;;;;;;3.20;2.37;;;;;;;-2.20;74.51;98555.28;4977637;28;20093;-66
2022/04/06 00:37:20;;;;;;;6.80;2.60;;;;;;;-2.42;74.07;98569.38;4995513;28;20042;-65
2022/04/06 00:39:46;;;;;;;3.63;2.53;;;;;;;-2.42;74.54;98566.75;4995739;28;20041;-67
2022/04/06 00:42:11;;;;;;;4.13;2.20;;;;;;;-2.37;75.19;98568.97;4995616;28;20037;-67
2022/04/06 00:44:38;;;;;;;3.97;2.37;;;;;;;-2.30;75.14;98568.31;4995160;28;20166;-64
2022/04/06 00:47:05;;;;;;;6.32;2.70;;;;;;;-2.38;73.59;98568.13;4977589;28;20126;-66
2022/04/06 00:49:31;;;;;;;3.30;2.72;;;;;;;-2.38;73.59;98583.78;4994721;28;20410;-66
2022/04/06 00:51:59;;;;;;;3.50;2.40;;;;;;;-2.47;73.78;98591.59;4995912;28;20034;-65
2022/04/06 00:54:25;;;;;;;4.60;2.17;;;;;;;-2.60;73.84;98584.03;4994677;28;20277;-65
2022/04/06 00:56:51;;;;;;;4.07;2.17;;;;;;;-2.57;73.49;98589.78;4977434;28;20034;-66
2022/04/06 00:59:18;;;;;;;3.23;2.70;;;;;;;-2.44;72.27;98589.53;4994791;28;20042;-66
2022/04/06 01:01:45;;;;;;;5.70;2.60;;;;;;;-2.61;72.68;98587.56;4994818;28;20039;-67
2022/04/06 01:04:11;;;;;;;5.90;2.80;;;;;;;-2.70;73.23;98593.56;4977251;28;20138;-65
2022/04/06 01:06:36;;;;;;;4.78;2.13;;;;;;;-2.66;72.87;98606.19;4995977;28;20038;-65
2022/04/06 01:09:04;;;;;;;3.17;2.33;;;;;;;-2.65;73.13;98612.22;4995203;28;20057;-65
2022/04/06 01:11:30;;;;;;;3.08;2.58;;;;;;;-2.74;73.06;98608.63;4995519;28;20038;-65
2022/04/06 01:13:57;;;;;;;4.20;2.63;;;;;;;-2.83;73.06;98599.00;4995025;28;20034;-66
2022/04/06 01:16:22;;;;;;;3.13;2.78;;;;;;;-2.98;72.93;98601.13;4994958;28;20031;-65
2022/04/06 01:18:48;;;;;;;2.30;2.03;;;;;;;-2.89;73.33;98623.81;4995120;28;20477;-64
2022/04/06 01:21:13;;;;;;;5.73;4.17;;;;;;;-2.95;73.08;98618.28;4995608;28;20477;-66
2022/04/06 01:23:43;;;;;;;3.40;3.07;;;;;;;-2.88;73.72;98616.81;4977300;28;20497;-65
2022/04/06 01:26:10;;;;;;;3.72;2.45;;;;;;;-2.87;74.33;98636.69;4994240;28;20069;-67
2022/04/06 01:28:37;;;;;;;2.33;2.13;;;;;;;-2.90;76.04;98629.94;4994119;28;20093;-64
2022/04/06 01:31:03;;;;;;;4.18;2.58;;;;;;;-2.91;75.52;98638.72;4994005;28;20363;-67
2022/04/06 01:33:28;;;;;;;3.28;2.72;;;;;;;-2.95;74.37;98637.31;4976682;28;20462;-66
2022/04/06 01:35:55;;;;;;;3.23;2.50;;;;;;;-2.93;74.08;98640.63;4995475;28;20130;-65
2022/04/06 01:38:21;;;;;;;6.20;2.70;;;;;;;-2.84;73.93;98644.25;4994407;28;20042;-65
2022/04/06 01:40:46;;;;;;;3.07;2.30;;;;;;;-2.78;73.70;98648.13;4994057;28;20042;-65
2022/04/06 01:43:12;;;;;;;2.50;2.30;;;;;;;-2.73;73.30;98640.72;4993807;28;20045;-65
2022/04/06 01:45:38;;;;;;;4.57;2.90;;;;;;;-2.72;72.25;98647.59;4994096;28;20042;-67
2022/04/06 01:48:04;;;;;;;4.43;2.43;;;;;;;-2.80;72.07;98650.84;4993988;28;20406;-65
2022/04/06 01:53:14;;;;;;;3.05;2.20;;;;;;;-2.93;71.61;98656.25;4994451;28;20042;-66
2022/04/06 01:55:39;;;;;;;2.67;2.43;;;;;;;-3.05;71.81;98652.09;4993756;28;20577;-65
2022/04/06 01:58:05;;;;;;;5.77;2.70;;;;;;;-3.04;71.24;98661.53;4994273;28;20097;-63
2022/04/06 02:00:31;;;;;;;5.63;2.50;;;;;;;-3.05;71.79;98657.28;4993971;28;20490;-66
2022/04/06 02:02:56;;;;;;;2.43;2.23;;;;;;;-3.11;70.76;98655.19;4992960;28;20388;-65
2022/04/06 02:05:22;;;;;;;2.53;2.37;;;;;;;-3.09;70.40;98658.50;4993637;28;20038;-65
2022/04/06 02:07:48;;;;;;;3.43;3.13;;;;;;;-3.10;70.46;98664.66;4993709;28;20034;-64
2022/04/06 02:10:15;;;;;;;4.10;2.10;;;;;;;-3.11;70.08;98668.22;4993546;28;20073;-64
2022/04/06 02:12:41;;;;;;;4.32;2.40;;;;;;;-3.10;70.22;98662.06;4993461;28;20502;-66
2022/04/06 02:15:12;;;;;;;6.28;2.75;;;;;;;-3.12;69.96;98666.56;4994386;28;20058;-64
2022/04/06 02:17:38;;;;;;;3.40;2.70;;;;;;;-3.12;69.51;98671.78;4994015;28;20042;-66
2022/04/06 02:20:04;;;;;;;2.65;2.00;;;;;;;-3.19;70.38;98675.81;4998072;28;20406;-65
2022/04/06 02:22:30;;;;;;;3.25;2.80;;;;;;;-3.26;69.37;98672.91;4978000;28;20624;-64
2022/04/06 02:24:56;;;;;;;2.30;2.10;;;;;;;-3.32;69.44;98670.81;4996307;28;20040;-63
2022/04/06 02:27:22;;;;;;;3.30;2.37;;;;;;;-3.31;69.27;98682.06;4993712;28;20505;-65
2022/04/06 02:29:48;;;;;;;2.53;2.33;;;;;;;-3.39;70.28;98668.84;4993640;28;20129;-66
2022/04/06 02:32:14;;;;;;;2.80;2.25;;;;;;;-3.49;70.76;98676.56;4994140;28;20058;-65
2022/04/06 02:34:39;;;;;;;2.77;2.43;;;;;;;-3.45;70.25;98688.41;4995271;28;20030;-64
2022/04/06 02:37:07;;;;;;;3.47;2.40;;;;;;;-3.47;70.34;98685.91;4994794;28;20034;-66
2022/04/06 02:39:32;;;;;;;5.47;2.33;;;;;;;-3.49;69.87;98685.19;4996970;28;20085;-66
2022/04/06 02:41:58;;;;;;;5.50;2.50;;;;;;;-3.46;70.52;98690.16;4996618;28;20034;-65
2022/04/06 02:44:23;;;;;;;2.73;2.10;;;;;;;-3.62;70.30;98684.53;4995766;28;20046;-66
2022/04/06 02:46:49;;;;;;;3.90;2.30;;;;;;;-3.42;69.92;98692.53;4994220;28;20351;-65
2022/04/06 02:49:15;;;;;;;3.10;2.73;;;;;;;-3.37;69.90;98700.78;4995856;28;20193;-65
2022/04/06 02:51:41;;;;;;;4.40;2.25;;;;;;;-3.37;70.03;98692.97;4994483;28;20038;-64
2022/04/06 02:54:07;;;;;;;2.20;2.00;;;;;;;-3.36;70.49;98700.66;4977924;28;20042;-66
2022/04/06 02:56:33;;;;;;;2.93;1.90;;;;;;;-3.30;69.73;98704.53;4993350;28;20030;-65
2022/04/06 02:58:59;;;;;;;3.08;2.60;;;;;;;-3.27;69.50;98709.47;4975258;28;20042;-65
2022/04/06 03:01:24;;;;;;;2.30;2.10;;;;;;;-3.25;70.18;98704.97;4992689;28;20042;-65
2022/04/06 03:03:50;;;;;;;2.90;2.57;;;;;;;-3.32;69.80;98706.44;4992640;28;20038;-64
2022/04/06 03:06:16;;;;;;;6.03;2.10;;;;;;;-3.42;69.79;98689.91;4992622;28;20034;-65
2022/04/06 03:08:43;;;;;;;3.63;2.50;;;;;;;-3.33;70.46;98720.41;4992461;28;20030;-65
2022/04/06 03:11:09;;;;;;;2.40;2.05;;;;;;;-3.40;70.71;98719.25;4975208;28;20042;-66
2022/04/06 03:13:36;;;;;;;3.90;2.58;;;;;;;-3.44;71.04;98709.09;4992136;28;20454;-65
2022/04/06 03:16:01;;;;;;;4.43;2.50;;;;;;;-3.39;70.83;98713.09;4992553;28;20053;-65
2022/04/06 03:18:27;;;;;;;2.73;2.53;;;;;;;-3.39;71.30;98720.91;4992494;28;20041;-65
2022/04/06 03:20:52;;;;;;;2.33;1.90;;;;;;;-3.55;70.68;98696.09;4975223;28;20038;-67
2022/04/06 03:23:18;;;;;;;3.23;1.77;;;;;;;-3.41;71.36;98723.63;4975105;28;20409;-65
2022/04/06 03:25:44;;;;;;;2.37;2.17;;;;;;;-3.48;71.10;98727.66;4992747;28;20042;-65
2022/04/06 03:28:10;;;;;;;3.43;2.30;;;;;;;-3.48;71.08;98725.03;4975029;28;20502;-64
2022/04/06 03:30:36;;;;;;;4.23;2.27;;;;;;;-3.48;71.24;98718.06;4992504;28;20049;-66
2022/04/06 03:33:02;;;;;;;2.90;2.45;;;;;;;-3.46;71.38;98730.97;4975088;28;20066;-67
2022/04/06 03:35:28;;;;;;;4.77;1.90;;;;;;;-3.41;71.08;98738.41;4992591;28;20069;-65
2022/04/06 03:37:53;;;;;;;4.13;2.50;;;;;;;-3.38;71.63;98748.56;4993155;28;20140;-66
2022/04/06 03:40:19;;;;;;;2.43;2.20;;;;;;;-3.39;71.26;98744.31;4992446;28;20030;-66
2022/04/06 03:42:45;;;;;;;3.90;2.40;;;;;;;-3.42;72.04;98742.78;4992642;28;20034;-66
2022/04/06 03:45:11;;;;;;;4.57;2.53;;;;;;;-3.56;71.64;98717.03;4992586;28;20053;-65
2022/04/06 03:47:43;;;;;;;3.77;2.53;;;;;;;-3.34;71.89;98752.56;4992196;28;20041;-66
2022/04/06 03:50:09;;;;;;;4.30;3.85;;;;;;;-3.38;72.19;98745.97;4991934;28;20145;-65
2022/04/06 03:52:34;;;;;;;3.10;2.40;;;;;;;-3.43;72.21;98741.16;4993417;28;20133;-66
2022/04/06 03:55:00;;;;;;;8.00;2.23;;;;;;;-3.36;71.93;98749.28;4992397;28;20041;-65
2022/04/06 03:57:25;;;;;;;4.13;2.40;;;;;;;-3.33;71.85;98743.81;4987669;28;20086;-65
2022/04/06 03:59:51;;;;;;;7.73;3.63;;;;;;;-3.42;72.14;98732.38;4983080;28;20505;-65
2022/04/06 04:02:17;;;;;;;4.30;2.85;;;;;;;-3.43;72.24;98741.16;4970720;28;20457;-65
2022/04/06 04:04:43;;;;;;;3.93;2.10;;;;;;;-3.39;72.47;98757.34;4970559;28;20045;-67
2022/04/06 04:07:09;;;;;;;2.90;2.00;;;;;;;-3.34;72.22;98750.81;4977588;28;20042;-65
2022/04/06 04:09:36;;;;;;;3.75;2.53;;;;;;;-3.27;71.87;98766.75;4981659;28;20051;-66
2022/04/06 04:12:04;;;;;;;2.78;2.20;;;;;;;-3.21;71.55;98768.84;4981561;28;20053;-71
2022/04/06 04:14:34;;;;;;;4.90;3.50;;;;;;;-3.23;71.84;98768.97;4984746;28;20046;-62
2022/04/06 04:17:00;;;;;;;;;;;;;;;-3.16;71.40;98777.13;4980427;28;20035;-72
2022/04/06 04:19:25;;;;;;;3.38;2.50;;;;;;;-3.18;71.92;98776.41;4982026;28;20377;-68
2022/04/06 04:21:51;;;;;;;8.37;3.37;;;;;;;-3.24;71.46;98780.34;4981375;28;20077;-69
2022/04/06 04:24:16;;;;;;;4.57;2.37;;;;;;;-3.23;72.26;98773.34;4965866;28;20041;-69
2022/04/06 04:26:42;;;;;;;4.03;2.73;;;;;;;-3.24;72.36;98771.69;4993619;28;20034;-68
2022/04/06 04:29:07;;;;;;;3.77;2.40;;;;;;;-3.24;72.67;98787.31;4969312;28;20039;-69
2022/04/06 04:31:33;;;;;;;5.60;2.50;;;;;;;-3.22;72.80;98780.22;4987476;28;20093;-66
2022/04/06 04:33:59;;;;;;;3.43;2.80;;;;;;;-3.14;72.51;98793.44;4986749;28;20038;-63
2022/04/06 04:36:25;;;;;;;3.07;2.83;;;;;;;-3.02;72.41;98794.22;4983984;28;20582;-63
2022/04/06 04:38:50;;;;;;;2.93;2.50;;;;;;;-2.92;71.69;98784.69;4995310;28;20069;-61
2022/04/06 04:41:17;;;;;;;5.13;3.20;;;;;;;-2.79;71.55;98776.72;4996522;28;20069;-62
2022/04/06 04:43:42;;;;;;;4.32;2.30;;;;;;;-2.74;71.62;98785.81;4977647;28;20516;-63
2022/04/06 04:46:08;;;;;;;3.10;2.40;;;;;;;-2.68;71.20;98776.66;4992078;28;20125;-63
2022/04/06 04:48:34;;;;;;;4.93;3.17;;;;;;;-2.73;71.15;98777.03;4996963;28;20521;-62
2022/04/06 04:50:59;;;;;;;7.03;2.97;;;;;;;-2.70;71.26;98781.16;4995407;28;20042;-60
2022/04/06 04:53:25;;;;;;;3.23;2.80;;;;;;;-2.79;72.10;98776.72;4984441;28;20045;-62
2022/04/06 04:55:53;;;;;;;6.20;2.33;;;;;;;-2.82;71.89;98776.03;4975928;28;20613;-59
2022/04/06 04:58:21;;;;;;;3.60;2.50;;;;;;;-2.81;72.12;98771.63;4975698;28;20034;-59
2022/04/06 05:00:47;;;;;;;5.78;2.05;;;;;;;-2.72;72.50;98777.84;4975146;28;20508;-61
2022/04/06 05:03:13;;;;;;;3.20;2.63;;;;;;;-2.68;72.38;98789.66;4975161;28;20046;-62
2022/04/06 05:05:44;;;;;;;4.17;2.67;;;;;;;-2.64;71.91;98780.66;4975560;28;20042;-62
2022/04/06 05:08:10;;;;;;;6.90;3.55;;;;;;;-2.54;71.45;98782.38;4958919;28;20038;-66
2022/04/06 05:10:36;;;;;;;4.27;2.70;;;;;;;-2.46;71.28;98780.91;4957997;28;20055;-63
2022/04/06 05:13:04;;;;;;;6.82;2.88;;;;;;;-2.43;70.91;98791.06;4975045;28;20043;-58
2022/04/06 05:15:30;;;;;;;4.40;2.60;;;;;;;-2.48;71.57;98788.84;4975741;28;20042;-62
2022/04/06 05:17:55;;;;;;;7.73;4.10;;;;;;;-2.41;71.20;98786.53;4984510;28;20559;-69
2022/04/06 05:20:21;;;;;;;2.73;2.53;;;;;;;-2.43;71.70;98789.28;4975351;28;20413;-62
2022/04/06 05:22:46;;;;;;;4.23;3.13;;;;;;;-2.38;70.96;98792.31;4957852;28;20605;-63
2022/04/06 05:25:12;;;;;;;2.93;2.27;;;;;;;-2.26;70.97;98798.31;4975712;28;20039;-63
2022/04/06 05:27:45;;;;;;;3.20;2.63;;;;;;;-2.25;70.59;98786.91;4974982;28;20122;-60
2022/04/06 05:30:15;;;;;;;5.68;2.42;;;;;;;-2.21;70.99;98783.91;4974761;28;20039;-55
2022/04/06 05:32:41;;;;;;;4.50;2.55;;;;;;;-2.24;70.58;98783.34;4974818;28;20034;-60
2022/04/06 05:35:09;;;;;;;2.95;2.53;;;;;;;-2.13;71.20;98790.25;4974785;28;20039;-62
2022/04/06 05:37:38;;;;;;;3.10;2.80;;;;;;;-2.11;70.03;98790.97;4974970;28;20046;-58
2022/04/06 05:40:05;;;;;;;4.05;2.55;;;;;;;-2.13;70.21;98777.22;4975628;28;20048;-59
2022/04/06 05:42:31;;;;;;;3.05;2.75;;;;;;;-2.08;69.70;98788.09;4974369;28;20049;-58
2022/04/06 05:44:57;;;;;;;3.70;2.60;;;;;;;-2.06;69.74;98780.94;4980202;28;20541;-63
2022/04/06 05:47:23;;;;;;;3.27;2.30;;;;;;;-1.93;69.68;98778.97;4993512;28;20138;-61
2022/04/06 05:49:48;;;;;;;4.97;3.25;;;;;;;-1.77;69.88;98776.66;4993767;28;20045;-62
2022/04/06 05:52:14;;;;;;;8.17;3.60;;;;;;;-1.59;69.01;98772.47;4993404;28;20042;-64
2022/04/06 05:54:39;;;;;;;7.83;4.43;;;;;;;-1.47;68.32;98754.06;4994781;28;20097;-63
2022/04/06 05:57:05;;;;;;;4.57;3.40;;;;;;;-1.07;68.30;98780.09;4993637;28;20077;-67
2022/04/06 05:59:30;;;;;;;3.47;3.13;;;;;;;-0.87;66.75;98781.72;4975476;28;20068;-63
2022/04/06 06:01:56;;;;;;;6.33;3.23;;;;;;;-0.73;66.00;98781.31;4984705;28;20069;-62
2022/04/06 06:04:21;;;;;;;6.67;3.40;;;;;;;-0.64;65.30;98784.88;4982883;28;20560;-65
2022/04/06 06:06:48;;;;;;;8.90;4.20;;;;;;;-0.53;65.17;98786.50;4981330;28;20037;-66
2022/04/06 06:09:17;;;;;;;11.55;6.10;;;;;;;-0.58;65.50;98770.41;4982943;28;20057;-65
2022/04/06 06:11:46;;;;;;;8.95;4.63;;;;;;;-0.41;65.93;98799.28;4985578;28;20489;-67
2022/04/06 06:14:11;;;;;;;5.63;3.70;;;;;;;-0.34;64.42;98784.66;4968994;28;20130;-66
2022/04/06 06:16:37;;;;;;;5.53;2.33;;;;;;;-0.36;64.53;98796.25;4979346;28;20038;-64
2022/04/06 06:19:02;;;;;;;5.00;2.90;;;;;;;-0.44;64.41;98776.03;4983266;28;20121;-71
2022/04/06 06:21:32;;;;;;;6.37;2.77;;;;;;;-0.29;64.38;98791.25;4984255;28;20069;-71
2022/04/06 06:24:04;;;;;;;5.00;3.23;;;;;;;-0.08;65.24;98791.88;4979959;28;20045;-72
2022/04/06 06:26:30;;;;;;;3.73;2.90;;;;;;;0.14;64.39;98794.16;4980047;28;20313;-65
2022/04/06 06:28:56;;;;;;;3.80;2.93;;;;;;;0.24;63.33;98794.91;4980538;28;20297;-63
2022/04/06 06:31:21;;;;;;;16.87;8.57;;;;;;;0.28;63.12;98793.66;4987156;28;20266;-62
2022/04/06 06:33:47;;;;;;;21.33;6.33;;;;;;;0.11;63.25;98768.28;4978841;28;20121;-64
2022/04/06 06:36:12;;;;;;;11.93;4.80;;;;;;;0.13;63.97;98792.50;4962162;28;20054;-62
2022/04/06 06:38:38;;;;;;;14.30;5.97;;;;;;;0.15;63.94;98785.31;4963376;28;20424;-63
2022/04/06 06:41:03;;;;;;;9.57;4.47;;;;;;;0.33;63.77;98802.91;4981820;28;20038;-60
2022/04/06 06:43:29;;;;;;;3.60;2.77;;;;;;;0.47;63.18;98805.00;4983547;28;20100;-62
2022/04/06 06:45:54;;;;;;;2.77;2.57;;;;;;;0.40;62.21;98815.25;4981280;28;20121;-62
2022/04/06 06:48:20;;;;;;;5.33;3.53;;;;;;;0.63;62.64;98813.06;4982234;28;20069;-66
2022/04/06 06:50:45;;;;;;;16.53;6.47;;;;;;;0.79;62.00;98808.00;4977325;28;20130;-66
2022/04/06 06:53:11;;;;;;;9.90;5.63;;;;;;;0.54;61.93;98806.91;4984103;28;20157;-64
2022/04/06 06:55:36;;;;;;;3.77;2.63;;;;;;;0.21;62.91;98810.91;4983319;28;20042;-62
2022/04/06 06:58:02;;;;;;;6.63;3.10;;;;;;;0.15;64.29;98811.50;4964911;28;20054;-62
2022/04/06 07:00:27;;;;;;;4.80;3.00;;;;;;;0.30;63.96;98809.25;4983621;28;20106;-62
2022/04/06 07:02:53;;;;;;;7.30;2.63;;;;;;;0.30;63.30;98794.38;4988712;28;20042;-66
2022/04/06 07:05:18;;;;;;;4.37;3.00;;;;;;;0.29;63.21;98811.03;4986018;28;20559;-67
2022/04/06 07:08:02;;;;;;;5.27;3.13;;;;;;;0.43;63.88;98814.13;4966281;28;20050;-67
2022/04/06 07:10:30;;;;;;;4.87;3.20;;;;;;;0.40;63.70;98810.03;4982770;28;20051;-71
2022/04/06 07:12:56;;;;;;;3.58;2.72;;;;;;;0.66;63.20;98810.16;4961224;28;20286;-70
2022/04/06 07:15:23;;;;;;;9.43;4.90;;;;;;;1.01;62.28;98808.53;4983065;28;20417;-60
2022/04/06 07:17:54;;;;;;;7.53;3.40;;;;;;;1.19;60.56;98812.00;4982701;28;20054;-61
2022/04/06 07:20:21;;;;;;;3.63;2.60;;;;;;;1.28;59.60;98805.00;4963847;28;20360;-65
2022/04/06 07:22:47;;;;;;;3.87;2.27;;;;;;;1.34;59.11;98812.25;4980113;28;20281;-66
2022/04/06 07:25:13;;;;;;;4.33;2.40;;;;;;;1.45;61.77;98807.63;4992018;28;20273;-66
2022/04/06 07:27:39;;;;;;;7.17;3.77;;;;;;;1.78;60.33;98813.09;4991982;28;20273;-62
2022/04/06 07:30:07;;;;;;;3.80;2.60;;;;;;;1.83;58.65;98810.84;4975079;28;20840;-60
2022/04/06 07:32:34;;;;;;;2.87;1.73;;;;;;;1.53;58.05;98814.72;4992109;28;20053;-62
2022/04/06 07:35:00;;;;;;;6.20;2.00;;;;;;;1.49;59.28;98808.13;4992314;28;20271;-60
2022/04/06 07:37:25;;;;;;;3.40;2.30;;;;;;;1.43;59.22;98806.94;4992183;28;20270;-62
2022/04/06 07:39:51;;;;;;;2.27;2.07;;;;;;;1.52;59.94;98813.91;4992932;28;20331;-62
2022/04/06 07:42:16;;;;;;;5.80;2.20;;;;;;;1.48;59.02;98819.59;4992865;28;20126;-64
2022/04/06 07:44:42;;;;;;;3.50;2.33;;;;;;;1.43;60.82;98800.84;4992373;28;20548;-64
2022/04/06 07:47:07;;;;;;;2.50;2.30;;;;;;;1.54;60.51;98801.44;4992241;28;20077;-66
2022/04/06 07:49:33;;;;;;;2.57;2.17;;;;;;;1.91;59.52;98815.31;4992116;28;20034;-63
2022/04/06 07:51:58;;;;;;;5.17;2.37;;;;;;;2.04;57.87;98821.78;4991974;28;20042;-61
2022/04/06 07:54:24;;;;;;;2.83;1.97;;;;;;;1.91;57.40;98824.00;4992617;28;20407;-68
2022/04/06 07:56:49;;;;;;;3.63;2.37;;;;;;;1.76;59.22;98815.06;4992298;28;20525;-65
2022/04/06 07:59:15;;;;;;;2.07;1.80;;;;;;;1.79;59.73;98825.25;4992180;28;20062;-63
2022/04/06 08:01:40;;;;;;;6.43;3.37;;;;;;;1.89;57.43;98817.25;4995374;28;20038;-69
2022/04/06 08:04:06;;;;;;;4.37;1.90;;;;;;;1.97;58.84;98826.00;4978395;28;20046;-70
2022/04/06 08:06:31;;;;;;;3.50;2.50;;;;;;;1.93;58.33;98826.47;4983198;28;20042;-72
2022/04/06 08:09:22;;;;;;;2.77;2.00;;;;;;;1.78;57.35;98828.84;5005945;28;20046;-62
2022/04/06 08:11:48;;;;;;;3.23;2.17;;;;;;;1.60;58.26;98828.06;4997196;28;20046;-64
2022/04/06 08:14:14;;;;;;;3.10;2.10;;;;;;;1.68;59.06;98828.94;4996335;28;20642;-66
2022/04/06 08:16:39;;;;;;;5.30;1.90;;;;;;;1.70;59.07;98810.41;4995874;28;20053;-66
2022/04/06 08:19:05;;;;;;;2.97;2.33;;;;;;;1.91;60.04;98844.19;4995504;28;20065;-65
2022/04/06 08:21:30;;;;;;;3.90;2.40;;;;;;;1.94;58.64;98838.63;4995761;28;20039;-68
2022/04/06 08:23:55;;;;;;;4.27;2.90;;;;;;;1.97;58.67;98833.88;4995638;28;20050;-68
2022/04/06 08:26:21;;;;;;;3.03;2.37;;;;;;;1.79;58.89;98833.13;4996213;28;20034;-67
2022/04/06 08:28:47;;;;;;;5.23;2.87;;;;;;;1.80;58.92;98838.22;4995422;28;20525;-71
2022/04/06 08:31:13;;;;;;;3.77;2.90;;;;;;;1.65;60.58;98825.78;4978068;28;20034;-72
2022/04/06 08:33:38;;;;;;;5.37;2.87;;;;;;;1.49;62.43;98819.44;4995485;28;20269;-67
2022/04/06 08:36:06;;;;;;;6.07;3.10;;;;;;;1.59;62.80;98839.53;4995662;28;20414;-67
2022/04/06 08:38:32;;;;;;;8.83;3.23;;;;;;;1.54;62.24;98838.19;4995782;28;20048;-69
2022/04/06 08:40:57;;;;;;;6.60;3.87;;;;;;;1.43;61.73;98840.19;4995742;28;20360;-70
2022/04/06 08:43:23;;;;;;;4.37;2.63;;;;;;;1.57;62.84;98849.34;4978181;28;20323;-69
2022/04/06 08:45:50;;;;;;;4.27;2.80;;;;;;;1.86;61.38;98847.28;4995235;28;20042;-68
2022/04/06 08:48:19;;;;;;;6.10;4.30;;;;;;;2.06;60.22;98846.09;4977797;28;20125;-68
2022/04/06 08:50:45;;;;;;;;;;;;;;;2.21;59.98;98856.84;4978195;28;20640;-67
2022/04/06 08:53:11;;;;;;;4.73;2.57;;;;;;;2.02;59.85;98851.78;4995014;28;19925;-69
2022/04/06 08:55:36;;;;;;;4.30;1.90;;;;;;;1.39;58.32;98807.38;5001808;28;20030;-70
2022/04/06 08:58:03;;;;;;;4.20;1.70;;;;;;;1.34;60.72;98857.69;4996920;28;20280;-70
2022/04/06 09:00:29;;;;;;;4.80;2.10;;;;;;;1.13;61.68;98857.97;4994942;28;20030;-67
2022/04/06 09:02:55;;;;;;;5.27;2.73;;;;;;;0.98;64.16;98856.00;4977570;28;20400;-69
2022/04/06 09:05:22;;;;;;;2.40;1.70;;;;;;;1.11;65.12;98861.72;4995104;28;20125;-71
2022/04/06 09:07:51;;;;;;;3.53;2.30;;;;;;;1.21;65.39;98865.94;4977790;28;20312;-64
2022/04/06 09:10:34;;;;;;;7.53;3.03;;;;;;;1.24;66.04;98870.88;4994812;28;20304;-62
2022/04/06 09:13:23;;;;;;;3.40;2.30;;;;;;;0.81;66.83;98853.22;4994920;28;20799;-60
2022/04/06 09:15:53;;;;;;;7.37;3.10;;;;;;;0.62;68.28;98879.53;4994648;28;20768;-55
2022/04/06 09:18:24;;;;;;;6.53;3.30;;;;;;;0.44;69.39;98868.16;4995088;28;20363;-60
2022/04/06 09:20:59;;;;;;;7.27;2.60;;;;;;;0.33;70.35;98887.50;4994293;28;20305;-54
2022/04/06 09:23:25;;;;;;;6.77;3.63;;;;;;;0.15;71.33;98884.78;4994337;28;20316;-61
2022/04/06 09:25:50;;;;;;;2.70;2.50;;;;;;;-0.01;72.21;98885.38;4960903;28;20768;-65
2022/04/06 09:28:15;;;;;;;6.33;2.33;;;;;;;-0.01;72.68;98900.25;4994741;28;20107;-66
2022/04/06 09:30:45;;;;;;;2.43;1.87;;;;;;;-0.01;71.77;98902.88;4994552;28;20038;-64
2022/04/06 09:33:21;;;;;;;1.80;1.70;;;;;;;-0.16;72.07;98904.28;4994147;28;20417;-70
2022/04/06 09:35:48;;;;;;;2.20;2.00;;;;;;;-0.26;73.18;98906.94;4993964;28;20284;-62
2022/04/06 09:38:23;;;;;;;4.90;1.80;;;;;;;-0.34;73.88;98912.81;4994478;28;20335;-65
2022/04/06 09:40:53;;;;;;;4.03;2.00;;;;;;;-0.27;73.95;98917.53;4994697;28;20257;-75
2022/04/06 09:43:30;;;;;;;11.00;3.47;;;;;;;-0.17;74.97;98915.72;4994941;28;20324;-72
2022/04/06 09:49:02;;;;;;;3.17;2.50;;;;;;;-0.12;75.36;98921.34;4994604;28;20748;-72
2022/04/06 09:51:44;;;;;;;4.47;2.37;;;;;;;-0.28;75.94;98893.16;4994407;28;20301;-76
2022/04/06 09:54:14;;;;;;;3.00;2.50;;;;;;;-0.05;75.69;98930.28;4995130;28;20277;-70
2022/04/06 09:56:42;;;;;;;5.57;3.60;;;;;;;-0.03;77.00;98928.34;4998388;28;20262;-72
2022/04/06 09:59:09;;;;;;;4.37;3.17;;;;;;;0.03;76.43;98921.75;4995141;28;20279;-74
2022/04/06 10:01:38;;;;;;;3.80;3.20;;;;;;;0.25;75.83;98934.50;5007633;28;20273;-72
2022/04/06 10:04:06;;;;;;;4.30;3.35;;;;;;;0.39;74.20;98920.16;5004547;28;20310;-72
2022/04/06 10:06:36;;;;;;;4.13;3.13;;;;;;;0.59;73.50;98929.59;5006484;28;20054;-70
2022/04/06 10:09:06;;;;;;;5.63;3.90;;;;;;;0.58;72.71;98922.72;5001809;28;20629;-71
2022/04/06 10:11:41;;;;;;;4.00;3.23;;;;;;;0.74;72.82;98941.25;4978573;28;20320;-74
2022/04/06 10:14:09;;;;;;;3.63;2.70;;;;;;;0.71;72.34;98935.47;4998544;28;20265;-78
2022/04/06 10:16:36;;;;;;;2.73;2.00;;;;;;;0.70;71.08;98937.25;4972432;28;20277;-73
2022/04/06 10:19:03;;;;;;;2.37;1.87;;;;;;;0.65;71.74;98955.22;4998395;28;20779;-71
2022/04/06 10:21:53;;;;;;;5.17;3.27;;;;;;;0.64;72.77;98964.03;4994213;28;20873;-70
2022/04/06 10:24:47;;;;;;;5.50;3.67;;;;;;;0.74;72.60;98958.75;4998002;28;20336;-68
2022/04/06 10:27:22;;;;;;;2.63;2.37;;;;;;;0.92;72.49;98960.47;5007787;28;20910;-73
2022/04/06 10:30:06;;;;;;;5.37;2.27;;;;;;;0.92;71.34;98968.34;4995948;28;20697;-75
2022/04/06 10:32:36;;;;;;;6.00;2.20;;;;;;;0.46;72.38;98966.56;4964741;28;20278;-75
2022/04/06 10:35:21;;;;;;;4.90;3.20;;;;;;;0.49;74.10;98978.56;5005426;28;20278;-70
2022/04/06 10:37:58;;;;;;;3.90;2.57;;;;;;;0.68;72.51;98983.75;4994083;28;20265;-70
2022/04/06 10:40:32;;;;;;;4.00;2.00;;;;;;;0.97;71.92;98995.91;4993060;28;20270;-74
2022/04/06 10:42:58;;;;;;;4.10;2.20;;;;;;;1.43;70.77;98992.34;4994946;28;20284;-69
2022/04/06 10:45:27;;;;;;;2.17;1.90;;;;;;;1.82;68.59;98999.00;4993124;28;20273;-59
2022/04/06 10:48:08;;;;;;;3.53;2.08;;;;;;;2.12;67.76;99000.41;4993004;28;20278;-62
2022/04/06 10:50:33;;;;;;;2.10;1.97;;;;;;;1.97;68.21;99004.53;4992916;28;20417;-69
2022/04/06 10:53:20;;;;;;;2.33;1.80;;;;;;;1.64;67.95;99013.06;4975259;28;20269;-65
2022/04/06 10:56:06;;;;;;;3.13;2.00;;;;;;;1.13;70.40;98998.72;4992819;28;20045;-68
2022/04/06 10:58:56;;;;;;;4.77;2.13;;;;;;;1.21;69.80;99025.06;4993157;28;20331;-68
2022/04/06 11:01:26;;;;;;;3.03;1.80;;;;;;;1.07;71.65;99034.22;4992814;28;20305;-65
2022/04/06 11:04:06;;;;;;;3.17;2.07;;;;;;;1.13;69.63;99038.03;4992632;28;20301;-68
2022/04/06 11:06:52;;;;;;;4.63;2.17;;;;;;;1.13;70.13;99049.34;4995587;28;20312;-64
2022/04/06 11:12:32;;;;;;;3.50;1.90;;;;;;;0.91;71.68;99049.72;4993323;28;20285;-67
2022/04/06 11:14:58;;;;;;;2.88;2.10;;;;;;;0.87;71.96;99062.31;4992352;28;20309;-64
2022/04/06 11:17:34;;;;;;;3.37;2.00;;;;;;;0.77;72.02;99058.03;4992938;28;20073;-75
2022/04/06 11:20:06;;;;;;;4.37;2.43;;;;;;;0.75;71.67;99059.97;4993478;28;20030;-63
2022/04/06 11:22:32;;;;;;;4.67;2.73;;;;;;;0.86;72.60;99072.91;4993007;28;20284;-67
2022/04/06 11:24:59;;;;;;;2.87;1.73;;;;;;;0.95;69.52;99068.63;5001265;28;20297;-71
2022/04/06 11:27:32;;;;;;;4.70;1.90;;;;;;;1.04;69.51;99075.63;4992838;28;20327;-68
2022/04/06 11:30:07;;;;;;;3.90;2.43;;;;;;;1.07;69.66;99070.91;4992716;28;20811;-65
2022/04/06 11:32:34;;;;;;;4.17;2.33;;;;;;;1.17;69.92;99089.25;4992469;28;20683;-64
2022/04/06 11:35:00;;;;;;;4.23;2.80;;;;;;;1.29;68.41;99098.56;4994394;28;20755;-66
2022/04/06 11:37:26;;;;;;;5.40;2.53;;;;;;;1.44;68.26;99099.75;4996104;28;20262;-63
2022/04/06 11:39:59;;;;;;;5.47;2.60;;;;;;;1.62;68.40;99097.19;4990352;28;20603;-62
2022/04/06 11:42:25;;;;;;;3.23;2.27;;;;;;;1.79;65.80;99100.84;4987489;28;20054;-64
2022/04/06 11:44:51;;;;;;;3.00;2.50;;;;;;;2.01;65.76;99092.50;4986403;28;20297;-63
2022/04/06 11:47:26;;;;;;;14.83;2.87;;;;;;;2.37;65.14;99087.28;4985618;28;20273;-63
2022/04/06 11:49:52;;;;;;;4.63;2.53;;;;;;;2.55;61.88;99093.34;4987130;28;20043;-64